createdAt,value
2023-03-06T00:00:49.446Z,23.52
2023-03-06T00:03:20.387Z,25.02
2023-03-06T00:05:52.399Z,23.40
2023-03-06T00:08:25.661Z,23.02
2023-03-06T00:10:54.776Z,23.17
2023-03-06T00:13:24.939Z,20.00
2023-03-06T00:16:00.943Z,23.20
2023-03-06T00:18:31.253Z,21.92
2023-03-06T00:21:02.838Z,22.30
2023-03-06T00:23:33.842Z,21.08
2023-03-06T00:26:02.383Z,21.37
2023-03-06T00:28:32.825Z,22.58
2023-03-06T00:31:04.395Z,21.83
2023-03-06T00:33:35.555Z,23.55
2023-03-06T00:36:10.917Z,22.15
2023-03-06T00:38:39.767Z,24.73
2023-03-06T00:41:09.289Z,22.55
2023-03-06T00:43:39.210Z,22.50
2023-03-06T00:46:08.008Z,23.73
2023-03-06T00:48:37.639Z,22.73
2023-03-06T00:51:13.884Z,21.80
2023-03-06T00:53:42.894Z,20.20
2023-03-06T00:56:14.188Z,26.27
2023-03-06T00:58:43.952Z,21.77
2023-03-06T01:01:13.164Z,20.92
2023-03-06T01:03:42.886Z,24.42
2023-03-06T01:06:16.029Z,23.10
2023-03-06T01:08:46.606Z,22.40
2023-03-06T01:11:15.440Z,21.95
2023-03-06T01:13:45.008Z,20.75
2023-03-06T01:16:21.275Z,20.08
2023-03-06T01:18:50.774Z,20.40
2023-03-06T01:21:21.913Z,19.25
2023-03-06T01:23:50.096Z,22.40
2023-03-06T01:26:18.631Z,21.70
2023-03-06T01:28:47.416Z,19.45
2023-03-06T01:31:18.384Z,18.35
2023-03-06T01:33:46.766Z,18.98
2023-03-06T01:36:15.078Z,20.65
2023-03-06T01:38:47.058Z,21.20
2023-03-06T01:41:21.788Z,19.38
2023-03-06T01:43:50.601Z,19.80
2023-03-06T01:46:33.991Z,20.77
2023-03-06T01:49:05.721Z,19.17
2023-03-06T01:51:43.152Z,22.00
2023-03-06T01:54:16.523Z,18.85
2023-03-06T01:56:49.369Z,18.13
2023-03-06T01:59:18.567Z,20.05
2023-03-06T02:01:50.940Z,20.52
2023-03-06T02:04:24.054Z,19.00
2023-03-06T02:06:53.506Z,19.98
2023-03-06T02:09:29.848Z,21.70
2023-03-06T02:12:00.662Z,16.88
2023-03-06T02:14:30.092Z,17.80
2023-03-06T02:17:00.027Z,19.20
2023-03-06T02:19:39.088Z,17.27
2023-03-06T02:22:09.014Z,15.60
2023-03-06T02:24:49.231Z,17.33
2023-03-06T02:27:23.986Z,17.42
2023-03-06T02:29:53.928Z,19.15
2023-03-06T02:32:24.197Z,19.23
2023-03-06T02:34:59.590Z,20.77
2023-03-06T02:37:30.713Z,18.85
2023-03-06T02:40:12.459Z,16.75
2023-03-06T02:42:47.693Z,19.27
2023-03-06T02:45:21.569Z,17.92
2023-03-06T02:47:52.015Z,19.38
2023-03-06T02:50:23.938Z,16.67
2023-03-06T02:52:54.167Z,18.15
2023-03-06T02:55:22.998Z,18.38
2023-03-06T02:57:55.930Z,18.50
2023-03-06T03:00:27.300Z,18.73
2023-03-06T03:02:55.802Z,21.67
2023-03-06T03:05:29.488Z,20.52
2023-03-06T03:07:58.185Z,19.83
2023-03-06T03:10:28.285Z,16.50
2023-03-06T03:12:59.421Z,17.17
2023-03-06T03:15:30.900Z,19.13
2023-03-06T03:18:00.584Z,18.58
2023-03-06T03:20:29.079Z,18.42
2023-03-06T03:22:58.398Z,19.15
2023-03-06T03:25:27.598Z,18.58
2023-03-06T03:28:00.431Z,18.42
2023-03-06T03:30:29.328Z,19.98
2023-03-06T03:32:58.297Z,21.30
2023-03-06T03:35:28.008Z,16.25
2023-03-06T03:37:56.415Z,17.75
2023-03-06T03:40:26.827Z,20.77
2023-03-06T03:42:57.106Z,21.75
2023-03-06T03:45:27.717Z,21.25
2023-03-06T03:47:56.736Z,19.70
2023-03-06T03:50:28.391Z,21.33
2023-03-06T03:52:57.838Z,19.17
2023-03-06T03:55:27.914Z,18.58
2023-03-06T03:58:00.268Z,21.10
2023-03-06T04:00:31.574Z,20.67
2023-03-06T04:03:00.257Z,20.13
2023-03-06T04:05:31.321Z,19.45
2023-03-06T04:08:01.254Z,19.67
2023-03-06T04:10:32.235Z,21.10
2023-03-06T04:13:03.582Z,20.33
2023-03-06T04:15:37.796Z,20.13
2023-03-06T04:18:06.766Z,20.80
2023-03-06T04:20:38.190Z,17.65
2023-03-06T04:23:08.413Z,20.15
2023-03-06T04:25:36.632Z,17.40
2023-03-06T04:28:06.207Z,20.02
2023-03-06T04:30:38.774Z,19.33
2023-03-06T04:33:08.627Z,18.67
2023-03-06T04:35:39.266Z,20.40
2023-03-06T04:38:10.358Z,20.10
2023-03-06T04:40:40.685Z,19.33
2023-03-06T04:43:15.030Z,20.83
2023-03-06T04:45:47.849Z,20.98
2023-03-06T04:48:19.759Z,19.60
2023-03-06T04:50:48.397Z,19.00
2023-03-06T04:53:23.690Z,21.55
2023-03-06T04:55:52.894Z,18.95
2023-03-06T04:58:26.886Z,21.42
2023-03-06T05:00:58.240Z,20.08
2023-03-06T05:03:27.838Z,22.58
2023-03-06T05:05:56.557Z,19.30
2023-03-06T05:08:26.763Z,20.45
2023-03-06T05:11:03.151Z,20.90
2023-03-06T05:13:31.399Z,23.40
2023-03-06T05:16:04.764Z,22.65
2023-03-06T05:18:35.265Z,22.75
2023-03-06T05:21:10.722Z,25.58
2023-03-06T05:23:42.265Z,27.55
2023-03-06T05:26:15.039Z,25.77
2023-03-06T05:28:43.286Z,22.70
2023-03-06T05:31:13.997Z,25.10
2023-03-06T05:33:42.770Z,26.50
2023-03-06T05:36:11.714Z,22.55
2023-03-06T05:38:41.346Z,27.05
2023-03-06T05:41:13.017Z,25.55
2023-03-06T05:43:42.600Z,26.55
2023-03-06T05:46:12.846Z,29.60
2023-03-06T05:48:46.778Z,36.92
2023-03-06T05:51:17.454Z,34.80
2023-03-06T05:53:46.121Z,30.08
2023-03-06T05:56:15.177Z,28.40
2023-03-06T05:58:46.557Z,34.30
2023-03-06T06:01:18.990Z,34.72
2023-03-06T06:03:54.039Z,31.25
2023-03-06T06:06:24.171Z,39.78
2023-03-06T06:08:53.016Z,33.42
2023-03-06T06:11:21.887Z,33.33
2023-03-06T06:13:53.281Z,40.70
2023-03-06T06:16:22.798Z,55.55
2023-03-06T06:19:02.946Z,54.33
2023-03-06T06:21:36.368Z,41.45
2023-03-06T06:24:07.329Z,35.25
2023-03-06T06:26:36.134Z,39.70
2023-03-06T06:29:05.679Z,39.28
2023-03-06T06:31:39.443Z,35.08
2023-03-06T06:34:12.551Z,34.90
2023-03-06T06:36:41.982Z,31.98
2023-03-06T06:39:16.751Z,36.65
2023-03-06T06:42:02.394Z,36.35
2023-03-06T06:44:38.189Z,36.63
2023-03-06T06:47:28.920Z,35.22
2023-03-06T06:49:58.816Z,37.67
2023-03-06T06:52:31.197Z,39.13
2023-03-06T06:54:59.692Z,33.80
2023-03-06T06:57:28.067Z,39.58
2023-03-06T06:59:59.768Z,35.15
2023-03-06T07:02:29.693Z,43.00
2023-03-06T07:05:04.191Z,36.30
2023-03-06T07:07:37.197Z,41.88
2023-03-06T07:12:37.895Z,35.50
2023-03-06T07:15:08.243Z,35.00
2023-03-06T07:17:39.621Z,33.67
2023-03-06T07:20:12.011Z,39.97
2023-03-06T07:22:50.943Z,36.95
2023-03-06T07:25:22.467Z,37.42
2023-03-06T07:27:54.497Z,34.95
2023-03-06T07:30:24.352Z,39.63
2023-03-06T07:33:00.323Z,34.15
2023-03-06T07:35:28.886Z,32.08
2023-03-06T07:37:57.605Z,32.53
2023-03-06T07:40:27.196Z,30.70
2023-03-06T07:43:06.016Z,32.47
2023-03-06T07:45:41.816Z,29.67
2023-03-06T07:48:11.316Z,33.72
2023-03-06T07:50:39.825Z,28.73
2023-03-06T07:53:10.118Z,28.63
2023-03-06T07:55:42.040Z,30.20
2023-03-06T07:58:10.822Z,30.05
2023-03-06T08:00:39.406Z,30.88
2023-03-06T08:03:08.050Z,31.63
2023-03-06T08:05:39.117Z,30.27
2023-03-06T08:08:07.634Z,31.83
2023-03-06T08:10:36.156Z,29.58
2023-03-06T08:13:05.600Z,30.27
2023-03-06T08:15:34.019Z,28.00
2023-03-06T08:18:02.348Z,28.92
2023-03-06T08:20:30.927Z,27.00
2023-03-06T08:23:00.650Z,30.23
2023-03-06T08:25:31.207Z,29.63
2023-03-06T08:28:00.859Z,29.33
2023-03-06T08:30:29.258Z,29.88
2023-03-06T08:32:57.488Z,28.13
2023-03-06T08:35:25.963Z,27.23
2023-03-06T08:37:56.326Z,28.85
2023-03-06T08:40:30.468Z,28.65
2023-03-06T08:43:00.222Z,30.92
2023-03-06T08:45:28.680Z,27.67
2023-03-06T08:47:57.461Z,29.35
2023-03-06T08:50:26.152Z,29.92
2023-03-06T08:52:56.109Z,26.77
2023-03-06T08:55:28.204Z,27.38
2023-03-06T08:57:57.436Z,26.60
2023-03-06T09:00:30.353Z,27.15
2023-03-06T09:03:01.699Z,28.00
2023-03-06T09:05:30.763Z,31.63
2023-03-06T09:07:59.170Z,27.13
2023-03-06T09:10:29.618Z,31.05
2023-03-06T09:12:59.302Z,30.17
2023-03-06T09:15:29.625Z,30.15
2023-03-06T09:17:59.987Z,29.38
2023-03-06T09:20:28.736Z,27.38
2023-03-06T09:22:57.156Z,29.23
2023-03-06T09:25:31.931Z,30.60
2023-03-06T09:28:10.943Z,26.63
2023-03-06T09:30:42.202Z,27.60
2023-03-06T09:33:10.533Z,27.38
2023-03-06T09:35:45.715Z,31.40
2023-03-06T09:38:14.625Z,32.78
2023-03-06T09:41:58.969Z,26.13
2023-03-06T09:44:32.382Z,28.33
2023-03-06T09:47:29.768Z,25.35
2023-03-06T09:50:11.811Z,25.67
2023-03-06T09:52:47.964Z,28.35
2023-03-06T09:55:20.530Z,23.08
2023-03-06T09:57:56.086Z,22.17
2023-03-06T10:00:32.138Z,24.25
2023-03-06T10:03:14.836Z,22.50
2023-03-06T10:05:46.471Z,22.63
2023-03-06T10:08:27.864Z,24.17
2023-03-06T10:11:03.923Z,22.15
2023-03-06T10:13:42.712Z,23.65
2023-03-06T10:16:23.963Z,22.75
2023-03-06T10:18:54.514Z,23.80
2023-03-06T10:21:39.085Z,23.10
2023-03-06T10:24:21.195Z,22.60
2023-03-06T10:26:56.540Z,21.55
2023-03-06T10:29:56.367Z,22.15
2023-03-06T10:32:47.443Z,23.35
2023-03-06T10:35:20.660Z,22.02
2023-03-06T10:37:49.682Z,23.17
2023-03-06T10:40:21.006Z,20.92
2023-03-06T10:42:58.700Z,25.73
2023-03-06T10:45:48.396Z,23.00
2023-03-06T10:48:24.710Z,21.35
2023-03-06T10:50:54.948Z,21.52
2023-03-06T10:53:29.233Z,21.75
2023-03-06T10:56:00.491Z,24.83
2023-03-06T10:58:31.982Z,24.98
2023-03-06T11:01:09.250Z,25.98
2023-03-06T11:03:39.869Z,25.00
2023-03-06T11:06:12.996Z,22.92
2023-03-06T11:08:43.692Z,27.50
2023-03-06T11:11:18.504Z,29.95
2023-03-06T11:14:00.102Z,21.17
2023-03-06T11:16:31.516Z,23.63
2023-03-06T11:19:04.333Z,24.15
2023-03-06T11:21:36.036Z,24.20
2023-03-06T11:26:42.508Z,24.77
2023-03-06T11:29:25.862Z,25.50
2023-03-06T11:31:58.355Z,23.90
2023-03-06T11:34:39.836Z,23.30
2023-03-06T11:37:12.144Z,24.33
2023-03-06T11:39:53.879Z,25.15
2023-03-06T11:42:29.846Z,25.02
2023-03-06T11:45:10.392Z,24.58
2023-03-06T11:47:42.307Z,24.48
2023-03-06T11:52:54.232Z,19.60
2023-03-06T11:55:36.335Z,25.92
2023-03-06T12:00:53.564Z,25.05
2023-03-06T12:04:00.542Z,22.02
2023-03-06T12:06:39.602Z,24.02
2023-03-06T12:09:22.469Z,23.83
2023-03-06T12:12:00.384Z,27.80
2023-03-06T12:14:43.661Z,26.23
2023-03-06T12:17:23.745Z,26.35
2023-03-06T12:20:11.576Z,22.33
2023-03-06T12:22:58.223Z,26.02
2023-03-06T12:25:37.758Z,26.73
2023-03-06T12:28:29.086Z,27.75
2023-03-06T12:31:11.191Z,24.03
2023-03-06T12:33:52.407Z,23.63
2023-03-06T12:36:41.275Z,24.45
2023-03-06T12:39:22.114Z,22.83
2023-03-06T12:42:06.744Z,23.40
2023-03-06T12:45:09.677Z,26.98
2023-03-06T12:47:43.675Z,27.17
2023-03-06T12:50:23.484Z,24.05
2023-03-06T12:52:53.754Z,26.48
2023-03-06T12:55:26.052Z,23.52
2023-03-06T12:57:55.684Z,27.13
2023-03-06T13:01:04.222Z,25.15
2023-03-06T13:03:55.484Z,27.42
2023-03-06T13:06:49.732Z,25.13
2023-03-06T13:09:32.706Z,26.88
2023-03-06T13:14:57.791Z,27.60
2023-03-06T13:17:34.011Z,27.27
2023-03-06T13:20:26.642Z,27.55
2023-03-06T13:22:55.805Z,31.17
2023-03-06T13:25:48.909Z,29.60
2023-03-06T13:28:41.615Z,27.00
2023-03-06T13:31:24.941Z,28.02
2023-03-06T13:34:02.177Z,27.42
2023-03-06T13:36:34.055Z,29.67
2023-03-06T13:41:57.569Z,23.75
2023-03-06T13:44:47.722Z,25.17
2023-03-06T13:47:35.662Z,28.02
2023-03-06T13:50:32.065Z,29.05
2023-03-06T13:53:37.424Z,27.63
2023-03-06T13:56:27.707Z,28.13
2023-03-06T13:59:20.758Z,28.27
2023-03-06T14:02:03.297Z,27.85
2023-03-06T14:04:44.052Z,28.45
2023-03-06T14:07:23.803Z,26.10
2023-03-06T14:10:03.347Z,29.13
2023-03-06T14:12:35.418Z,30.25
2023-03-06T14:15:14.629Z,28.75
2023-03-06T14:17:53.828Z,29.35
2023-03-06T14:20:34.599Z,26.83
2023-03-06T14:23:21.254Z,28.23
2023-03-06T14:25:56.146Z,29.70
2023-03-06T14:28:27.326Z,28.77
2023-03-06T14:30:58.593Z,27.87
2023-03-06T14:33:38.189Z,30.15
2023-03-06T14:36:09.380Z,29.90
2023-03-06T14:38:44.822Z,29.10
2023-03-06T14:41:15.450Z,28.55
2023-03-06T14:43:46.111Z,29.13
2023-03-06T14:46:21.604Z,26.13
2023-03-06T14:49:02.333Z,28.23
2023-03-06T14:51:41.841Z,29.33
2023-03-06T14:54:18.858Z,30.73
2023-03-06T14:56:49.584Z,29.92
2023-03-06T14:59:24.062Z,28.67
2023-03-06T15:01:58.130Z,31.25
2023-03-06T15:04:35.360Z,29.75
2023-03-06T15:07:07.108Z,31.80
2023-03-06T15:12:08.028Z,27.95
2023-03-06T15:14:38.875Z,28.75
2023-03-06T15:17:22.453Z,31.13
2023-03-06T15:19:54.865Z,28.00
2023-03-06T15:22:32.053Z,34.03
2023-03-06T15:25:26.777Z,31.40
2023-03-06T15:28:00.250Z,32.03
2023-03-06T15:30:40.867Z,30.85
2023-03-06T15:33:26.018Z,31.15
2023-03-06T15:35:57.454Z,29.15
2023-03-06T15:38:33.745Z,32.05
2023-03-06T15:41:04.186Z,33.83
2023-03-06T15:43:38.107Z,30.92
2023-03-06T15:46:09.251Z,32.65
2023-03-06T15:48:38.045Z,33.10
2023-03-06T15:51:08.623Z,35.83
2023-03-06T15:53:42.792Z,32.20
2023-03-06T15:56:13.803Z,40.90
2023-03-06T15:58:43.818Z,32.03
2023-03-06T16:01:17.087Z,30.25
2023-03-06T16:03:46.224Z,31.90
2023-03-06T16:06:20.280Z,35.03
2023-03-06T16:08:51.552Z,35.67
2023-03-06T16:11:41.859Z,30.42
2023-03-06T16:14:24.146Z,32.27
2023-03-06T16:16:55.129Z,37.10
2023-03-06T16:19:27.571Z,40.53
2023-03-06T16:21:59.182Z,35.05
2023-03-06T16:24:30.557Z,39.78
2023-03-06T16:27:02.558Z,35.72
2023-03-06T16:32:03.212Z,37.88
2023-03-06T16:34:32.444Z,37.15
2023-03-06T16:37:05.723Z,41.55
2023-03-06T16:39:42.591Z,38.90
2023-03-06T16:42:13.042Z,40.60
2023-03-06T16:44:41.356Z,36.28
2023-03-06T16:47:21.149Z,43.80
2023-03-06T16:49:52.079Z,38.53
2023-03-06T16:52:20.382Z,38.77
2023-03-06T16:54:51.584Z,37.38
2023-03-06T16:57:24.029Z,46.17
2023-03-06T16:59:53.303Z,39.80
2023-03-06T17:02:22.735Z,38.88
2023-03-06T17:04:51.849Z,38.72
2023-03-06T17:07:21.981Z,36.90
2023-03-06T17:09:52.533Z,46.28
2023-03-06T17:12:23.862Z,43.67
2023-03-06T17:14:54.410Z,54.90
2023-03-06T17:17:22.878Z,49.83
2023-03-06T17:19:51.958Z,45.10
2023-03-06T17:22:23.052Z,45.90
2023-03-06T17:24:53.426Z,43.38
2023-03-06T17:27:24.982Z,40.60
2023-03-06T17:29:54.236Z,45.53
2023-03-06T17:32:28.404Z,46.60
2023-03-06T17:34:58.908Z,51.08
2023-03-06T17:37:28.260Z,45.00
2023-03-06T17:40:01.190Z,48.45
2023-03-06T17:42:29.891Z,45.20
2023-03-06T17:45:00.187Z,44.13
2023-03-06T17:47:28.705Z,45.80
2023-03-06T17:49:58.536Z,49.33
2023-03-06T17:52:27.618Z,47.47
2023-03-06T17:54:58.906Z,47.40
2023-03-06T17:57:29.457Z,46.28
2023-03-06T17:59:58.415Z,46.00
2023-03-06T18:02:27.206Z,41.58
2023-03-06T18:04:58.169Z,41.83
2023-03-06T18:07:27.436Z,42.15
2023-03-06T18:09:59.650Z,44.08
2023-03-06T18:12:28.828Z,45.03
2023-03-06T18:14:57.711Z,38.40
2023-03-06T18:17:29.070Z,43.63
2023-03-06T18:19:59.230Z,37.40
2023-03-06T18:22:29.152Z,45.17
2023-03-06T18:24:59.568Z,39.95
2023-03-06T18:27:30.855Z,46.40
2023-03-06T18:29:59.259Z,42.55
2023-03-06T18:32:29.750Z,42.10
2023-03-06T18:35:00.119Z,42.38
2023-03-06T18:37:29.391Z,43.08
2023-03-06T18:39:59.256Z,45.38
2023-03-06T18:42:29.469Z,46.85
2023-03-06T18:44:57.672Z,44.05
2023-03-06T18:47:26.761Z,43.05
2023-03-06T18:49:58.460Z,45.13
2023-03-06T18:52:28.652Z,46.83
2023-03-06T18:55:00.110Z,45.85
2023-03-06T18:57:30.326Z,47.58
2023-03-06T18:59:59.207Z,47.85
2023-03-06T19:02:35.035Z,48.28
2023-03-06T19:05:04.690Z,50.60
2023-03-06T19:07:34.190Z,52.92
2023-03-06T19:10:06.128Z,49.47
2023-03-06T19:12:35.591Z,54.63
2023-03-06T19:15:05.709Z,56.85
2023-03-06T19:17:35.934Z,48.80
2023-03-06T19:20:06.173Z,56.17
2023-03-06T19:22:36.035Z,52.03
2023-03-06T19:25:07.109Z,58.45
2023-03-06T19:27:37.985Z,55.20
2023-03-06T19:30:08.391Z,55.13
2023-03-06T19:32:37.614Z,54.47
2023-03-06T19:35:12.429Z,55.53
2023-03-06T19:37:41.874Z,53.22
2023-03-06T19:40:14.012Z,51.72
2023-03-06T19:42:43.824Z,49.88
2023-03-06T19:45:13.048Z,50.00
2023-03-06T19:47:41.625Z,51.42
2023-03-06T19:50:11.854Z,51.00
2023-03-06T19:52:40.148Z,50.42
2023-03-06T19:55:10.214Z,51.97
2023-03-06T19:57:40.857Z,54.95
2023-03-06T20:00:11.515Z,49.50
2023-03-06T20:05:10.289Z,57.85
2023-03-06T20:07:38.479Z,54.45
2023-03-06T20:10:07.451Z,54.80
2023-03-06T20:12:36.716Z,56.42
2023-03-06T20:15:08.323Z,53.85
2023-03-06T20:17:40.818Z,56.20
2023-03-06T20:20:12.112Z,62.10
2023-03-06T20:22:40.789Z,56.50
2023-03-06T20:25:10.319Z,58.97
2023-03-06T20:27:39.200Z,56.67
2023-03-06T20:30:11.516Z,61.47
2023-03-06T20:32:40.051Z,67.53
2023-03-06T20:35:09.330Z,72.35
2023-03-06T20:37:38.156Z,106.90
2023-03-06T20:40:09.494Z,93.45
2023-03-06T20:42:38.439Z,94.15
2023-03-06T20:45:09.782Z,98.65
2023-03-06T20:47:37.910Z,73.10
2023-03-06T20:50:09.230Z,67.43
2023-03-06T20:52:38.093Z,60.50
2023-03-06T20:55:07.815Z,60.25
2023-03-06T20:57:38.967Z,63.67
2023-03-06T21:00:11.886Z,62.60
2023-03-06T21:02:40.622Z,60.83
2023-03-06T21:05:12.730Z,60.45
2023-03-06T21:07:42.954Z,68.30
2023-03-06T21:10:14.634Z,69.28
2023-03-06T21:12:43.953Z,64.65
2023-03-06T21:15:14.974Z,62.72
2023-03-06T21:17:45.167Z,65.50
2023-03-06T21:20:27.828Z,78.13
2023-03-06T21:22:59.018Z,84.28
2023-03-06T21:25:30.802Z,96.82
2023-03-06T21:28:00.406Z,97.80
2023-03-06T21:30:35.385Z,78.35
2023-03-06T21:33:10.627Z,75.35
2023-03-06T21:35:47.428Z,79.13
2023-03-06T21:38:18.175Z,80.47
2023-03-06T21:40:47.804Z,75.28
2023-03-06T21:43:17.643Z,79.50
2023-03-06T21:45:49.345Z,78.15
2023-03-06T21:48:19.062Z,68.53
2023-03-06T21:50:48.923Z,64.85
2023-03-06T21:53:21.348Z,68.03
2023-03-06T21:55:51.844Z,65.80
2023-03-06T21:58:24.989Z,65.70
2023-03-06T22:00:55.616Z,66.15
2023-03-06T22:03:26.365Z,70.00
2023-03-06T22:05:57.282Z,68.20
2023-03-06T22:08:28.384Z,64.25
2023-03-06T22:10:59.942Z,66.60
2023-03-06T22:13:29.858Z,69.60
2023-03-06T22:16:02.474Z,64.13
2023-03-06T22:18:32.026Z,64.68
2023-03-06T22:21:02.197Z,63.33
2023-03-06T22:23:32.582Z,63.28
2023-03-06T22:26:03.789Z,65.30
2023-03-06T22:28:34.774Z,64.13
2023-03-06T22:31:12.004Z,66.80
2023-03-06T22:33:43.281Z,67.40
2023-03-06T22:36:16.016Z,63.65
2023-03-06T22:38:46.628Z,67.57
2023-03-06T22:41:18.128Z,69.70
2023-03-06T22:43:47.633Z,71.28
2023-03-06T22:46:18.901Z,71.70
2023-03-06T22:48:49.998Z,68.78
2023-03-06T22:51:24.115Z,68.47
2023-03-06T22:53:56.588Z,72.47
2023-03-06T22:56:31.445Z,78.97
2023-03-06T22:59:01.697Z,81.85
2023-03-06T23:01:34.973Z,75.50
2023-03-06T23:04:08.549Z,75.55
2023-03-06T23:06:41.954Z,76.63
2023-03-06T23:09:21.516Z,73.82
2023-03-06T23:14:25.201Z,81.30
2023-03-06T23:16:56.945Z,78.93
2023-03-06T23:19:31.314Z,83.05
2023-03-06T23:22:01.840Z,79.82
2023-03-06T23:24:35.931Z,70.85
2023-03-06T23:27:04.939Z,69.90
2023-03-06T23:29:37.353Z,70.53
2023-03-06T23:32:10.430Z,70.93
2023-03-06T23:34:40.352Z,67.10
2023-03-06T23:37:12.675Z,66.13
2023-03-06T23:39:42.911Z,69.97
2023-03-06T23:42:12.941Z,67.03
2023-03-06T23:44:43.473Z,72.53
2023-03-06T23:47:13.154Z,72.90
2023-03-06T23:49:44.805Z,71.70
2023-03-06T23:52:13.683Z,78.35
2023-03-06T23:54:42.036Z,72.28
2023-03-06T23:57:12.033Z,72.45
2023-03-06T23:59:41.308Z,77.90
